createdAt,value
2018-06-24T00:01:12.955Z,76.80
2018-06-24T00:03:42.126Z,76.00
2018-06-24T00:06:11.296Z,77.70
2018-06-24T00:08:40.467Z,75.40
2018-06-24T00:11:10.029Z,74.90
2018-06-24T00:13:39.289Z,74.80
2018-06-24T00:16:08.669Z,76.20
2018-06-24T00:18:37.846Z,75.50
2018-06-24T00:21:06.970Z,75.80
2018-06-24T00:23:36.133Z,74.50
2018-06-24T00:26:05.370Z,74.40
2018-06-24T00:28:34.550Z,74.70
2018-06-24T00:31:03.691Z,75.20
2018-06-24T00:33:32.812Z,75.10
2018-06-24T00:36:02.003Z,75.90
2018-06-24T00:38:31.097Z,74.50
2018-06-24T00:41:00.309Z,75.30
2018-06-24T00:43:29.494Z,75.40
2018-06-24T00:45:58.597Z,74.90
2018-06-24T00:48:27.778Z,76.50
2018-06-24T00:50:56.938Z,77.10
2018-06-24T00:53:26.129Z,77.30
2018-06-24T00:55:55.275Z,77.60
2018-06-24T00:58:24.401Z,77.70
2018-06-24T01:00:53.599Z,78.80
2018-06-24T01:03:22.798Z,79.50
2018-06-24T01:05:51.931Z,79.50
2018-06-24T01:08:21.088Z,79.40
2018-06-24T01:10:50.319Z,81.30
2018-06-24T01:13:19.501Z,81.00
2018-06-24T01:15:48.626Z,81.00
2018-06-24T01:18:17.780Z,80.20
2018-06-24T01:20:46.954Z,80.40
2018-06-24T01:23:16.076Z,80.10
2018-06-24T01:25:45.244Z,81.60
2018-06-24T01:28:14.445Z,80.40
2018-06-24T01:30:43.654Z,81.20
2018-06-24T01:33:12.810Z,81.00
2018-06-24T01:35:41.962Z,80.40
2018-06-24T01:38:11.094Z,80.20
2018-06-24T01:40:40.230Z,79.30
2018-06-24T01:43:09.378Z,80.40
2018-06-24T01:45:38.538Z,81.30
2018-06-24T01:48:07.695Z,81.60
2018-06-24T01:50:36.806Z,82.90
2018-06-24T01:53:05.880Z,83.40
2018-06-24T01:55:35.036Z,84.30
2018-06-24T01:58:04.185Z,83.90
2018-06-24T02:00:33.337Z,82.70
2018-06-24T02:03:02.493Z,82.90
2018-06-24T02:05:31.606Z,83.10
2018-06-24T02:08:00.685Z,80.60
2018-06-24T02:10:29.849Z,82.00
2018-06-24T02:12:58.952Z,80.90
2018-06-24T02:15:28.125Z,81.80
2018-06-24T02:17:57.221Z,81.80
2018-06-24T02:20:26.419Z,82.20
2018-06-24T02:22:55.629Z,82.80
2018-06-24T02:25:24.785Z,83.10
2018-06-24T02:27:53.892Z,83.30
2018-06-24T02:30:23.128Z,84.10
2018-06-24T02:32:52.194Z,84.20
2018-06-24T02:35:21.329Z,84.60
2018-06-24T02:37:50.520Z,84.70
2018-06-24T02:40:19.681Z,84.50
2018-06-24T02:42:48.842Z,84.80
2018-06-24T02:45:17.971Z,84.50
2018-06-24T02:47:47.172Z,85.30
2018-06-24T02:50:16.496Z,84.40
2018-06-24T02:52:45.613Z,84.30
2018-06-24T02:55:14.785Z,84.20
2018-06-24T02:57:43.946Z,83.60
2018-06-24T03:00:13.164Z,84.00
2018-06-24T03:02:42.317Z,84.20
2018-06-24T03:05:11.497Z,82.50
2018-06-24T03:07:40.724Z,83.00
2018-06-24T03:10:09.914Z,82.90
2018-06-24T03:12:39.026Z,83.00
2018-06-24T03:15:08.149Z,82.60
2018-06-24T03:17:37.347Z,82.60
2018-06-24T03:20:06.558Z,81.80
2018-06-24T03:22:35.644Z,82.20
2018-06-24T03:25:04.770Z,82.10
2018-06-24T03:27:33.959Z,81.50
2018-06-24T03:30:03.147Z,81.30
2018-06-24T03:32:32.293Z,82.00
2018-06-24T03:35:01.413Z,81.40
2018-06-24T03:37:30.577Z,81.10
2018-06-24T03:39:59.749Z,82.40
2018-06-24T03:42:28.858Z,82.10
2018-06-24T03:44:57.995Z,82.30
2018-06-24T03:47:27.265Z,79.20
2018-06-24T03:49:56.380Z,81.80
2018-06-24T03:52:25.543Z,81.00
2018-06-24T03:54:54.646Z,80.90
2018-06-24T03:57:23.800Z,79.20
2018-06-24T03:59:52.960Z,80.40
2018-06-24T04:02:22.155Z,79.90
2018-06-24T04:04:51.373Z,79.30
2018-06-24T04:07:20.383Z,80.20
2018-06-24T04:09:49.560Z,80.50
2018-06-24T04:12:18.626Z,78.70
2018-06-24T04:14:48.516Z,78.60
2018-06-24T04:17:17.645Z,77.80
2018-06-24T04:19:46.723Z,78.00
2018-06-24T04:22:15.928Z,77.00
2018-06-24T04:24:45.128Z,77.80
2018-06-24T04:27:14.253Z,76.30
2018-06-24T04:29:43.358Z,76.90
2018-06-24T04:32:12.487Z,76.70
2018-06-24T04:34:41.641Z,75.10
2018-06-24T04:37:10.824Z,75.00
2018-06-24T04:39:39.913Z,74.70
2018-06-24T04:42:09.144Z,71.80
2018-06-24T04:44:38.248Z,73.60
2018-06-24T04:47:07.449Z,73.50
2018-06-24T04:49:36.901Z,75.00
2018-06-24T04:52:06.107Z,74.40
2018-06-24T04:54:35.250Z,70.90
2018-06-24T04:57:04.583Z,71.50
2018-06-24T04:59:33.729Z,72.40
2018-06-24T05:02:02.918Z,71.50
2018-06-24T05:04:32.105Z,72.30
2018-06-24T05:07:01.225Z,72.20
2018-06-24T05:09:30.361Z,71.40
2018-06-24T05:11:59.514Z,73.10
2018-06-24T05:14:28.716Z,70.60
2018-06-24T05:16:57.857Z,70.00
2018-06-24T05:19:26.988Z,70.20
2018-06-24T05:21:56.146Z,71.40
2018-06-24T05:24:25.273Z,72.20
2018-06-24T05:26:54.402Z,72.30
2018-06-24T05:29:23.541Z,72.90
2018-06-24T05:31:52.757Z,71.50
2018-06-24T05:34:22.830Z,70.30
2018-06-24T05:36:51.981Z,69.80
2018-06-24T05:39:21.153Z,70.80
2018-06-24T05:41:50.339Z,72.00
2018-06-24T05:44:19.475Z,71.50
2018-06-24T05:46:48.642Z,70.90
2018-06-24T05:49:17.776Z,71.00
2018-06-24T05:51:46.934Z,70.10
2018-06-24T05:54:16.128Z,70.00
2018-06-24T05:56:45.278Z,68.90
2018-06-24T05:59:14.377Z,69.70
2018-06-24T06:01:43.576Z,70.20
2018-06-24T06:04:12.674Z,67.20
2018-06-24T06:09:12.148Z,65.30
2018-06-24T06:11:41.333Z,66.00
2018-06-24T06:14:10.486Z,66.50
2018-06-24T06:16:39.577Z,67.00
2018-06-24T06:19:08.749Z,64.40
2018-06-24T06:21:37.961Z,66.20
2018-06-24T06:24:07.261Z,63.90
2018-06-24T06:26:36.456Z,64.80
2018-06-24T06:29:05.562Z,63.10
2018-06-24T06:31:34.712Z,61.20
2018-06-24T06:34:03.822Z,60.50
2018-06-24T06:36:32.997Z,61.70
2018-06-24T06:39:02.194Z,62.20
2018-06-24T06:41:31.314Z,60.00
2018-06-24T06:44:00.479Z,60.80
2018-06-24T06:46:29.657Z,61.00
2018-06-24T06:48:58.832Z,61.30
2018-06-24T06:51:27.899Z,62.70
2018-06-24T06:53:57.099Z,61.50
2018-06-24T06:56:26.221Z,62.70
2018-06-24T06:58:55.357Z,65.10
2018-06-24T07:01:24.584Z,60.80
2018-06-24T07:03:53.881Z,65.00
2018-06-24T07:06:23.383Z,62.70
2018-06-24T07:08:52.552Z,62.10
2018-06-24T07:11:21.798Z,59.30
2018-06-24T07:13:50.961Z,56.20
2018-06-24T07:16:20.057Z,56.10
2018-06-24T07:18:49.199Z,53.50
2018-06-24T07:21:18.360Z,54.10
2018-06-24T07:23:47.507Z,53.30
2018-06-24T07:26:16.642Z,55.20
2018-06-24T07:28:45.766Z,55.20
2018-06-24T07:31:14.962Z,53.70
2018-06-24T07:33:44.136Z,53.70
2018-06-24T07:36:13.227Z,55.60
2018-06-24T07:38:42.369Z,55.90
2018-06-24T07:41:11.543Z,54.50
2018-06-24T07:43:40.655Z,54.60
2018-06-24T07:46:09.813Z,54.20
2018-06-24T07:48:39.140Z,53.40
2018-06-24T07:51:08.474Z,53.80
2018-06-24T07:53:37.605Z,52.50
2018-06-24T07:56:06.773Z,54.90
2018-06-24T07:58:35.900Z,57.50
2018-06-24T08:01:05.017Z,57.70
2018-06-24T08:03:34.140Z,56.60
2018-06-24T08:06:03.321Z,57.80
2018-06-24T08:08:32.459Z,55.10
2018-06-24T08:11:01.659Z,55.20
2018-06-24T08:13:30.911Z,53.70
2018-06-24T08:16:00.103Z,54.20
2018-06-24T08:18:29.362Z,54.50
2018-06-24T08:20:58.527Z,53.00
2018-06-24T08:23:27.673Z,53.50
2018-06-24T08:25:56.846Z,54.90
2018-06-24T08:28:25.956Z,55.20
2018-06-24T08:30:55.075Z,57.20
2018-06-24T08:33:24.226Z,57.20
2018-06-24T08:35:53.361Z,60.50
2018-06-24T08:38:22.613Z,59.30
2018-06-24T08:40:51.745Z,59.60
2018-06-24T08:43:20.900Z,64.20
2018-06-24T08:45:50.019Z,63.80
2018-06-24T08:48:19.185Z,61.60
2018-06-24T08:50:48.343Z,59.80
2018-06-24T08:53:17.518Z,56.40
2018-06-24T08:55:46.691Z,56.70
2018-06-24T08:58:16.067Z,53.50
2018-06-24T09:00:45.314Z,52.10
2018-06-24T09:03:14.466Z,54.60
2018-06-24T09:05:43.627Z,52.20
2018-06-24T09:08:12.806Z,52.10
2018-06-24T09:10:41.919Z,58.00
2018-06-24T09:13:11.085Z,54.80
2018-06-24T09:15:40.223Z,57.00
2018-06-24T09:18:09.322Z,54.10
2018-06-24T09:20:38.478Z,51.70
2018-06-24T09:23:07.683Z,51.10
2018-06-24T09:25:37.018Z,49.80
2018-06-24T09:28:06.509Z,45.90
2018-06-24T09:30:35.788Z,45.10
2018-06-24T09:33:04.942Z,42.20
2018-06-24T09:35:34.066Z,46.20
2018-06-24T09:38:03.265Z,44.50
2018-06-24T09:40:32.395Z,45.50
2018-06-24T09:43:01.544Z,46.30
2018-06-24T09:45:30.730Z,43.70
2018-06-24T09:47:59.898Z,42.50
2018-06-24T09:50:29.082Z,42.10
2018-06-24T09:52:58.242Z,43.10
2018-06-24T09:55:27.433Z,45.80
2018-06-24T09:57:56.621Z,43.20
2018-06-24T10:00:25.802Z,41.20
2018-06-24T10:02:55.017Z,40.80
2018-06-24T10:05:24.390Z,38.00
2018-06-24T10:07:53.539Z,38.10
2018-06-24T10:10:22.669Z,35.50
2018-06-24T10:12:51.837Z,38.90
2018-06-24T10:15:21.019Z,39.40
2018-06-24T10:17:50.237Z,40.10
2018-06-24T10:20:19.381Z,41.00
2018-06-24T10:22:48.553Z,39.20
2018-06-24T10:25:17.648Z,42.60
2018-06-24T10:27:46.816Z,41.70
2018-06-24T10:30:16.007Z,39.50
2018-06-24T10:32:45.129Z,36.20
2018-06-24T10:35:14.255Z,36.30
2018-06-24T10:37:43.348Z,35.30
2018-06-24T10:40:12.475Z,37.30
2018-06-24T10:42:41.679Z,39.10
2018-06-24T10:45:10.858Z,42.50
2018-06-24T10:47:39.986Z,41.50
2018-06-24T10:50:09.152Z,41.10
2018-06-24T10:52:38.317Z,37.20
2018-06-24T10:55:07.422Z,35.30
2018-06-24T10:57:36.642Z,38.10
2018-06-24T11:00:05.845Z,41.00
2018-06-24T11:02:35.025Z,43.30
2018-06-24T11:05:04.281Z,46.60
2018-06-24T11:07:33.444Z,46.70
2018-06-24T11:10:02.600Z,41.40
2018-06-24T11:12:31.770Z,38.00
2018-06-24T11:15:00.917Z,36.20
2018-06-24T11:17:30.019Z,35.20
2018-06-24T11:19:59.223Z,34.90
2018-06-24T11:22:28.398Z,37.60
2018-06-24T11:24:57.518Z,40.20
2018-06-24T11:27:26.677Z,43.20
2018-06-24T11:29:55.821Z,45.90
2018-06-24T11:32:24.953Z,46.10
2018-06-24T11:34:54.105Z,42.50
2018-06-24T11:37:23.280Z,40.20
2018-06-24T11:39:52.377Z,39.60
2018-06-24T11:42:21.511Z,37.20
2018-06-24T11:44:50.683Z,36.70
2018-06-24T11:47:19.829Z,35.10
2018-06-24T11:49:49.165Z,34.90
2018-06-24T11:52:18.449Z,34.90
2018-06-24T11:54:47.610Z,34.60
2018-06-24T11:57:16.773Z,30.00
2018-06-24T11:59:45.874Z,29.70
2018-06-24T12:02:14.985Z,29.00
2018-06-24T12:04:44.405Z,29.80
2018-06-24T12:07:13.605Z,30.90
2018-06-24T12:09:42.775Z,30.20
2018-06-24T12:12:11.914Z,30.20
2018-06-24T12:14:41.056Z,30.90
2018-06-24T12:17:10.227Z,33.10
2018-06-24T12:19:39.356Z,35.50
2018-06-24T12:22:08.485Z,34.70
2018-06-24T12:24:37.609Z,34.70
2018-06-24T12:27:06.752Z,36.50
2018-06-24T12:29:35.881Z,36.40
2018-06-24T12:32:05.061Z,35.20
2018-06-24T12:34:34.238Z,33.80
2018-06-24T12:37:03.438Z,32.20
2018-06-24T12:39:32.555Z,30.10
2018-06-24T12:42:01.811Z,28.80
2018-06-24T12:44:30.909Z,29.70
2018-06-24T12:47:00.117Z,34.70
2018-06-24T12:49:29.210Z,33.60
2018-06-24T12:51:58.381Z,32.50
2018-06-24T12:54:27.520Z,33.50
2018-06-24T12:56:56.670Z,32.80
2018-06-24T12:59:25.938Z,30.80
2018-06-24T13:01:55.057Z,30.60
2018-06-24T13:04:24.194Z,30.60
2018-06-24T13:06:53.316Z,31.30
2018-06-24T13:09:22.506Z,33.20
2018-06-24T13:11:51.646Z,34.00
2018-06-24T13:14:20.732Z,33.90
2018-06-24T13:16:49.892Z,33.60
2018-06-24T13:19:19.003Z,33.10
2018-06-24T13:21:48.175Z,29.90
2018-06-24T13:24:17.305Z,29.50
2018-06-24T13:26:46.488Z,24.50
2018-06-24T13:29:15.667Z,24.70
2018-06-24T13:31:44.780Z,23.40
2018-06-24T13:34:13.971Z,25.30
2018-06-24T13:36:43.123Z,25.30
2018-06-24T13:39:12.405Z,24.60
2018-06-24T13:41:41.539Z,24.40
2018-06-24T13:44:10.670Z,24.40
2018-06-24T13:46:39.776Z,26.70
2018-06-24T13:49:08.923Z,27.20
2018-06-24T13:51:38.109Z,27.80
2018-06-24T13:54:07.243Z,28.50
2018-06-24T13:56:36.495Z,26.70
2018-06-24T13:59:05.771Z,27.00
2018-06-24T14:01:34.923Z,28.10
2018-06-24T14:04:04.069Z,27.40
2018-06-24T14:06:33.146Z,27.40
2018-06-24T14:09:02.339Z,27.80
2018-06-24T14:11:31.481Z,28.30
2018-06-24T14:14:00.966Z,27.60
2018-06-24T14:16:30.163Z,26.30
2018-06-24T14:18:59.363Z,25.90
2018-06-24T14:21:28.507Z,27.60
2018-06-24T14:23:57.610Z,24.10
2018-06-24T14:26:26.744Z,20.00
2018-06-24T14:28:55.908Z,18.40
2018-06-24T14:31:25.062Z,17.60
2018-06-24T14:33:54.582Z,16.60
2018-06-24T14:36:23.743Z,20.00
2018-06-24T14:38:52.833Z,16.60
2018-06-24T14:41:21.956Z,18.30
2018-06-24T14:43:51.069Z,19.90
2018-06-24T14:46:20.213Z,21.30
2018-06-24T14:48:49.402Z,22.30
2018-06-24T14:51:18.541Z,26.10
2018-06-24T14:53:47.682Z,31.40
2018-06-24T14:56:16.844Z,33.30
2018-06-24T14:58:46.039Z,30.40
2018-06-24T15:01:15.190Z,24.50
2018-06-24T15:03:44.421Z,24.80
2018-06-24T15:06:13.542Z,27.20
2018-06-24T15:08:42.684Z,26.90
2018-06-24T15:11:11.854Z,28.10
2018-06-24T15:13:41.002Z,28.80
2018-06-24T15:16:10.194Z,28.80
2018-06-24T15:18:39.330Z,28.60
2018-06-24T15:21:08.489Z,29.00
2018-06-24T15:23:37.641Z,29.20
2018-06-24T15:26:06.819Z,29.90
2018-06-24T15:28:36.004Z,30.50
2018-06-24T15:31:05.180Z,29.50
2018-06-24T15:33:34.443Z,29.90
2018-06-24T15:36:03.643Z,29.30
2018-06-24T15:38:32.922Z,30.90
2018-06-24T15:41:02.074Z,31.20
2018-06-24T15:43:31.238Z,30.80
2018-06-24T15:46:00.406Z,31.20
2018-06-24T15:48:29.510Z,31.90
2018-06-24T15:50:58.690Z,33.40
2018-06-24T15:53:27.767Z,33.90
2018-06-24T15:55:56.944Z,33.90
2018-06-24T15:58:26.118Z,34.10
2018-06-24T16:00:55.281Z,34.90
2018-06-24T16:03:24.396Z,36.70
2018-06-24T16:05:53.558Z,37.10
2018-06-24T16:08:22.738Z,37.40
2018-06-24T16:10:51.838Z,37.90
2018-06-24T16:13:21.004Z,38.30
2018-06-24T16:15:50.197Z,39.10
2018-06-24T16:18:19.326Z,39.80
2018-06-24T16:20:48.596Z,42.10
2018-06-24T16:23:17.704Z,42.30
2018-06-24T16:25:46.830Z,42.50
2018-06-24T16:28:15.936Z,43.90
2018-06-24T16:30:45.071Z,44.80
2018-06-24T16:33:14.176Z,44.70
2018-06-24T16:35:43.267Z,46.20
2018-06-24T16:38:12.413Z,46.70
2018-06-24T16:40:41.557Z,47.80
2018-06-24T16:43:10.784Z,48.60
2018-06-24T16:45:39.950Z,48.70
2018-06-24T16:48:09.075Z,49.10
2018-06-24T16:50:38.242Z,49.40
2018-06-24T16:53:07.485Z,49.50
2018-06-24T16:55:36.624Z,49.60
2018-06-24T16:58:06.023Z,49.50
2018-06-24T17:00:35.149Z,50.10
2018-06-24T17:03:04.306Z,51.60
2018-06-24T17:05:33.411Z,53.20
2018-06-24T17:08:02.635Z,54.00
2018-06-24T17:10:31.823Z,54.60
2018-06-24T17:13:00.952Z,55.50
2018-06-24T17:15:30.104Z,54.40
2018-06-24T17:17:59.471Z,55.20
2018-06-24T17:20:28.568Z,54.00
2018-06-24T17:22:57.761Z,52.80
2018-06-24T17:25:26.923Z,51.20
2018-06-24T17:27:56.256Z,50.40
2018-06-24T17:30:25.427Z,49.70
2018-06-24T17:32:54.658Z,49.40
2018-06-24T17:35:23.779Z,49.80
2018-06-24T17:37:53.162Z,48.20
2018-06-24T17:40:22.402Z,48.30
2018-06-24T17:42:51.647Z,48.40
2018-06-24T17:45:20.810Z,49.80
2018-06-24T17:47:50.006Z,51.30
2018-06-24T17:50:19.182Z,52.00
2018-06-24T17:52:48.332Z,53.70
2018-06-24T17:55:17.491Z,54.30
2018-06-24T17:57:46.664Z,55.50
2018-06-24T18:00:15.856Z,57.80
2018-06-24T18:02:45.204Z,58.70
2018-06-24T18:05:14.502Z,60.90
2018-06-24T18:07:43.914Z,60.80
2018-06-24T18:10:13.114Z,62.10
2018-06-24T18:12:42.331Z,64.10
2018-06-24T18:15:11.583Z,62.70
2018-06-24T18:17:40.785Z,62.00
2018-06-24T18:20:09.967Z,62.50
2018-06-24T18:22:39.118Z,64.10
2018-06-24T18:25:08.223Z,62.90
2018-06-24T18:27:37.395Z,62.30
2018-06-24T18:30:06.942Z,62.10
2018-06-24T18:32:36.144Z,63.50
2018-06-24T18:35:05.320Z,63.30
2018-06-24T18:37:34.557Z,63.00
2018-06-24T18:40:03.816Z,62.20
2018-06-24T18:42:32.983Z,62.00
2018-06-24T18:45:02.158Z,63.50
2018-06-24T18:47:31.323Z,64.00
2018-06-24T18:50:00.499Z,66.80
2018-06-24T18:52:29.679Z,66.50
2018-06-24T18:54:58.884Z,68.00
2018-06-24T18:57:28.126Z,69.80
2018-06-24T18:59:57.332Z,69.90
2018-06-24T19:02:26.578Z,69.80
2018-06-24T19:04:55.791Z,68.60
2018-06-24T19:07:25.015Z,68.70
2018-06-24T19:09:54.248Z,68.70
2018-06-24T19:14:52.549Z,68.30
2018-06-24T19:17:21.725Z,67.70
2018-06-24T19:19:50.931Z,66.50
2018-06-24T19:22:20.192Z,67.00
2018-06-24T19:24:49.402Z,66.80
2018-06-24T19:27:18.628Z,66.50
2018-06-24T19:29:47.874Z,66.90
2018-06-24T19:32:17.112Z,67.10
2018-06-24T19:34:46.381Z,68.80
2018-06-24T19:37:15.586Z,67.90
2018-06-24T19:39:44.857Z,67.10
2018-06-24T19:42:14.089Z,67.40
2018-06-24T19:44:43.265Z,68.20
2018-06-24T19:47:12.491Z,68.20
2018-06-24T19:49:41.679Z,67.80
2018-06-24T19:52:10.939Z,68.90
2018-06-24T19:54:40.163Z,68.60
2018-06-24T19:57:09.290Z,69.10
2018-06-24T19:59:38.524Z,68.30
2018-06-24T20:02:07.772Z,67.00
2018-06-24T20:04:36.924Z,68.10
2018-06-24T20:07:06.148Z,67.60
2018-06-24T20:09:35.311Z,66.70
2018-06-24T20:12:04.520Z,66.40
2018-06-24T20:14:33.747Z,66.80
2018-06-24T20:17:02.961Z,66.60
2018-06-24T20:19:32.148Z,66.60
2018-06-24T20:22:01.612Z,66.60
2018-06-24T20:24:30.587Z,66.90
2018-06-24T20:26:59.791Z,67.20
2018-06-24T20:29:29.012Z,66.80
2018-06-24T20:31:58.186Z,65.60
2018-06-24T20:34:27.375Z,64.40
2018-06-24T20:36:56.583Z,65.70
2018-06-24T20:39:25.757Z,66.50
2018-06-24T20:41:55.587Z,66.90
2018-06-24T20:44:24.998Z,66.70
2018-06-24T20:46:54.191Z,66.00
2018-06-24T20:49:23.362Z,65.00
2018-06-24T20:51:52.465Z,64.60
2018-06-24T20:54:21.623Z,64.70
2018-06-24T20:56:50.790Z,64.30
2018-06-24T20:59:19.890Z,64.10
2018-06-24T21:01:49.017Z,63.40
2018-06-24T21:04:18.167Z,63.70
2018-06-24T21:06:47.543Z,63.90
2018-06-24T21:09:16.684Z,65.00
2018-06-24T21:11:45.873Z,66.10
2018-06-24T21:14:15.061Z,65.60
2018-06-24T21:16:44.217Z,67.10
2018-06-24T21:19:13.296Z,68.30
2018-06-24T21:21:42.478Z,69.80
2018-06-24T21:24:11.671Z,71.40
2018-06-24T21:26:40.837Z,69.90
2018-06-24T21:29:09.973Z,70.00
2018-06-24T21:31:39.101Z,68.60
2018-06-24T21:34:08.274Z,67.70
2018-06-24T21:36:37.393Z,68.50
2018-06-24T21:39:09.252Z,68.30
2018-06-24T21:41:38.369Z,68.00
2018-06-24T21:44:07.511Z,68.20
2018-06-24T21:46:36.628Z,68.40
2018-06-24T21:49:05.815Z,68.00
2018-06-24T21:51:34.961Z,68.60
2018-06-24T21:54:04.102Z,69.70
2018-06-24T21:56:33.277Z,69.90
2018-06-24T21:59:02.423Z,69.90
2018-06-24T22:01:31.634Z,69.90
2018-06-24T22:04:00.842Z,69.90
2018-06-24T22:06:29.953Z,69.90
2018-06-24T22:08:59.167Z,69.90
2018-06-24T22:11:28.278Z,71.20
2018-06-24T22:13:57.410Z,70.00
2018-06-24T22:16:26.505Z,70.00
2018-06-24T22:18:55.653Z,70.20
2018-06-24T22:21:24.794Z,68.50
2018-06-24T22:23:53.917Z,67.50
2018-06-24T22:26:23.090Z,68.70
2018-06-24T22:28:52.196Z,68.40
2018-06-24T22:31:21.420Z,68.70
2018-06-24T22:33:50.571Z,69.00
2018-06-24T22:36:19.697Z,70.00
2018-06-24T22:38:48.933Z,69.50
2018-06-24T22:41:18.095Z,69.90
2018-06-24T22:43:47.259Z,69.90
2018-06-24T22:46:16.419Z,69.90
2018-06-24T22:48:45.556Z,70.00
2018-06-24T22:51:14.763Z,69.40
2018-06-24T22:53:43.988Z,68.60
2018-06-24T22:56:13.165Z,68.00
2018-06-24T22:58:43.101Z,68.70
2018-06-24T23:01:12.266Z,68.40
2018-06-24T23:03:41.445Z,68.10
2018-06-24T23:06:10.582Z,67.80
2018-06-24T23:08:39.771Z,67.50
2018-06-24T23:11:08.933Z,67.40
2018-06-24T23:13:38.055Z,67.20
2018-06-24T23:16:07.237Z,66.40
2018-06-24T23:18:36.410Z,66.20
2018-06-24T23:21:05.717Z,65.80
2018-06-24T23:23:34.858Z,67.20
2018-06-24T23:26:04.005Z,66.60
2018-06-24T23:28:33.132Z,66.50
2018-06-24T23:31:02.292Z,66.70
2018-06-24T23:33:31.410Z,67.50
2018-06-24T23:36:00.554Z,66.70
2018-06-24T23:38:29.689Z,66.30
2018-06-24T23:40:58.812Z,65.00
2018-06-24T23:43:27.970Z,65.20
2018-06-24T23:45:57.067Z,64.70
2018-06-24T23:48:26.233Z,64.30
2018-06-24T23:50:55.442Z,64.10
2018-06-24T23:53:24.619Z,63.60
2018-06-24T23:55:53.724Z,63.10
2018-06-24T23:58:22.862Z,62.70
